Terminal Aerodrome Forecast
Issued by NWS Sterling, VA

Current Version | Previous Version | Graphics & Text | Print | Product List | Glossary On
Versions: 1 2 3 4 5 6 7 8 9 10 11 12 13 14 15 16 17 18 19
284
FTUS41 KLWX 271453 AAA
TAFMRB
TAF AMD
KMRB 271453Z 2715/2812 03007KT P6SM OVC015
     FM271800 06005KT P6SM OVC010
     FM272100 09005KT P6SM OVC015
     FM280200 00000KT P6SM OVC015
     FM280600 00000KT 3SM BR OVC015
     FM280900 VRB03KT 2SM BR OVC010=

USA.gov is the U.S. government's official web portal to all federal, state and local government web resources and services.